Decoded Metar for LFBD (BORDEAUX in FRANCE) (IATA:BOD) | Meteo·Mobile Aviation Weather
aviador You're here:

LFBD Decoded Metar

BORDEAUX in FRANCE
Report Time2018-11-12 21:30:00
UTC Time2018-11-12 22:02:16
Flight Rules vfr VFR
WindVRB at 02 kt
Visibility9999 m
Phenomena:N/A
Clouds:N/A
CeilingNone
Temp11°C (ISA -4)
Dew Point11°C (100% RH)
AAT10.6°C
QNH1022 hPa
Density Alt-358 ft
Elevation200 ft
Report Wrong Elevation
Raw Report
LFBD 122130Z AUTO VRB02KT CAVOK 11/11 Q1022 NOSIG=

Extra information for LFBD:More info

Metar Taf Metar & Taf Last 4 Metars F.Rules Stats Wind Profile Meteogram Temp Stats Airport Information Weather charts Add Link Nearby VenuesMetar ALERT Operation Metar Decoded Social comments